Time,TemperatureF,DewpointF,PressureIn,WindDirection,WindDirectionDegrees,WindSpeedMPH,WindSpeedGustMPH,Humidity,HourlyPrecipIn,Conditions,Clouds,dailyrainin,SoftwareType,DateUTC
2013-07-12 00:00:00,73.4,62.3,29.84,North,359,0.0,0.0,68,0.00,,---,0.00,VWS V14.01,2013-07-12 04:00:00,
2013-07-12 00:01:00,73.4,62.3,29.84,North,359,0.0,0.0,68,0.00,,---,0.00,VWS V14.01,2013-07-12 04:01:00,
2013-07-12 00:06:00,73.1,62.4,29.85,North,359,0.0,0.0,69,0.00,,---,0.00,VWS V14.01,2013-07-12 04:06:00,
2013-07-12 00:11:00,72.0,61.7,29.84,North,359,0.0,0.0,70,0.00,,---,0.00,VWS V14.01,2013-07-12 04:11:00,
2013-07-12 00:13:00,71.7,60.2,29.86,North,359,0.0,31.8,67,0.00,,---,0.00,VWS V14.01,2013-07-12 04:13:00,
2013-07-12 00:16:00,72.9,62.8,29.84,North,359,0.0,0.0,71,0.00,,---,0.00,VWS V14.01,2013-07-12 04:16:00,
2013-07-12 00:21:00,72.7,63.0,29.84,North,359,0.0,0.0,72,0.00,,---,0.00,VWS V14.01,2013-07-12 04:21:00,
2013-07-12 00:26:00,72.9,63.2,29.84,North,359,0.0,0.0,72,0.00,,---,0.00,VWS V14.01,2013-07-12 04:26:00,
2013-07-12 00:31:00,73.1,63.5,29.84,North,359,0.0,0.0,72,0.00,,---,0.00,VWS V14.01,2013-07-12 04:31:00,
2013-07-12 00:36:00,72.1,62.9,29.84,North,359,0.0,0.0,73,0.00,,---,0.00,VWS V14.01,2013-07-12 04:36:00,
2013-07-12 00:41:00,72.3,63.3,29.84,North,359,0.0,0.0,73,0.00,,---,0.00,VWS V14.01,2013-07-12 04:41:00,
2013-07-12 00:46:00,71.3,62.4,29.84,North,359,0.0,0.0,73,0.00,,---,0.00,VWS V14.01,2013-07-12 04:46:00,
2013-07-12 00:51:00,71.9,63.1,29.84,North,359,0.0,0.0,74,0.00,,---,0.00,VWS V14.01,2013-07-12 04:51:00,
2013-07-12 00:56:00,71.9,63.2,29.84,North,359,0.0,0.0,74,0.00,,---,0.00,VWS V14.01,2013-07-12 04:56:00,
2013-07-12 01:00:00,72.2,63.5,29.84,North,359,0.0,0.0,74,0.00,,---,0.00,VWS V14.01,2013-07-12 05:00:00,
2013-07-12 01:05:00,72.9,64.2,29.84,North,359,0.0,0.0,74,0.00,,---,0.00,VWS V14.01,2013-07-12 05:05:00,
2013-07-12 01:10:00,71.7,62.9,29.84,North,359,0.0,0.0,74,0.00,,---,0.00,VWS V14.01,2013-07-12 05:10:00,
2013-07-12 01:15:00,72.7,64.1,29.84,North,359,0.0,0.0,74,0.00,,---,0.00,VWS V14.01,2013-07-12 05:15:00,
2013-07-12 01:20:00,72.4,63.6,29.85,North,359,0.0,0.0,74,0.00,,---,0.00,VWS V14.01,2013-07-12 05:20:00,
2013-07-12 01:25:00,71.0,62.2,29.85,North,359,0.0,0.0,74,0.00,,---,0.00,VWS V14.01,2013-07-12 05:25:00,
2013-07-12 01:30:00,72.5,63.6,29.85,North,359,0.0,0.0,74,0.00,,---,0.00,VWS V14.01,2013-07-12 05:30:00,
2013-07-12 01:35:00,71.7,63.0,29.84,North,359,0.0,0.0,74,0.00,,---,0.00,VWS V14.01,2013-07-12 05:35:00,
2013-07-12 01:40:00,71.2,62.4,29.84,North,359,0.0,0.0,74,0.00,,---,0.00,VWS V14.01,2013-07-12 05:40:00,
2013-07-12 01:45:00,71.9,63.6,29.84,North,359,0.0,0.0,75,0.00,,---,0.00,VWS V14.01,2013-07-12 05:45:00,
2013-07-12 01:50:00,71.9,63.5,29.84,North,359,0.0,0.0,75,0.00,,---,0.00,VWS V14.01,2013-07-12 05:50:00,
2013-07-12 01:55:00,71.6,62.9,29.84,North,359,0.0,0.0,74,0.00,,---,0.00,VWS V14.01,2013-07-12 05:55:00,
2013-07-12 02:00:00,71.5,62.7,29.84,North,359,0.0,0.0,74,0.00,,---,0.00,VWS V14.01,2013-07-12 06:00:00,
2013-07-12 02:05:00,71.4,62.2,29.84,North,359,0.0,0.0,73,0.00,,---,0.00,VWS V14.01,2013-07-12 06:05:00,
2013-07-12 02:10:00,71.3,61.7,29.85,North,359,0.0,0.0,72,0.00,,---,0.00,VWS V14.01,2013-07-12 06:10:00,
2013-07-12 02:15:00,71.7,62.2,29.84,North,359,0.0,0.0,72,0.00,,---,0.00,VWS V14.01,2013-07-12 06:15:00,
2013-07-12 02:20:00,71.6,62.0,29.84,North,359,0.0,0.0,72,0.00,,---,0.00,VWS V14.01,2013-07-12 06:20:00,
2013-07-12 02:25:00,72.0,62.3,29.84,North,359,0.0,0.0,72,0.00,,---,0.00,VWS V14.01,2013-07-12 06:25:00,
2013-07-12 02:30:00,71.1,61.7,29.85,North,359,0.0,0.0,72,0.00,,---,0.00,VWS V14.01,2013-07-12 06:30:00,
2013-07-12 02:35:00,71.8,62.5,29.85,North,359,0.0,0.0,73,0.00,,---,0.00,VWS V14.01,2013-07-12 06:35:00,
2013-07-12 02:40:00,70.8,61.6,29.85,North,359,0.0,0.0,73,0.00,,---,0.00,VWS V14.01,2013-07-12 06:40:00,
2013-07-12 02:45:00,70.9,61.9,29.85,North,359,0.0,0.0,73,0.00,,---,0.00,VWS V14.01,2013-07-12 06:45:00,
2013-07-12 02:50:00,71.5,62.6,29.85,North,359,0.0,0.0,74,0.00,,---,0.00,VWS V14.01,2013-07-12 06:50:00,
2013-07-12 02:55:00,71.4,62.4,29.85,North,359,0.0,0.0,73,0.00,,---,0.00,VWS V14.01,2013-07-12 06:55:00,
2013-07-12 03:00:00,70.6,61.5,29.85,North,359,0.0,0.0,73,0.00,,---,0.00,VWS V14.01,2013-07-12 07:00:00,
2013-07-12 03:05:00,70.3,60.7,29.85,North,359,0.0,0.0,72,0.00,,---,0.00,VWS V14.01,2013-07-12 07:05:00,
2013-07-12 03:10:00,70.7,60.7,29.85,North,359,0.0,0.0,71,0.00,,---,0.00,VWS V14.01,2013-07-12 07:10:00,
2013-07-12 03:15:00,70.8,60.2,29.85,North,359,0.0,0.0,69,0.00,,---,0.00,VWS V14.01,2013-07-12 07:15:00,
2013-07-12 03:20:00,70.5,60.1,29.85,North,359,0.0,0.0,70,0.00,,---,0.00,VWS V14.01,2013-07-12 07:20:00,
2013-07-12 03:25:00,70.9,60.3,29.85,North,359,0.0,0.0,69,0.00,,---,0.00,VWS V14.01,2013-07-12 07:25:00,
2013-07-12 03:30:00,70.9,60.1,29.86,North,359,0.0,0.0,69,0.00,,---,0.00,VWS V14.01,2013-07-12 07:30:00,
2013-07-12 03:35:00,70.9,60.3,29.85,North,359,0.0,0.0,69,0.00,,---,0.00,VWS V14.01,2013-07-12 07:35:00,
2013-07-12 03:40:00,71.1,60.2,29.85,North,359,0.0,0.0,68,0.00,,---,0.00,VWS V14.01,2013-07-12 07:40:00,
2013-07-12 03:45:00,71.3,60.4,29.85,North,359,0.0,0.0,68,0.00,,---,0.00,VWS V14.01,2013-07-12 07:45:00,
2013-07-12 03:50:00,70.8,59.4,29.86,North,359,0.0,0.0,67,0.00,,---,0.00,VWS V14.01,2013-07-12 07:50:00,
2013-07-12 03:55:00,71.5,60.2,29.85,North,359,0.0,0.0,68,0.00,,---,0.00,VWS V14.01,2013-07-12 07:55:00,
2013-07-12 04:00:00,70.5,59.4,29.85,North,359,0.0,0.0,68,0.00,,---,0.00,VWS V14.01,2013-07-12 08:00:00,
2013-07-12 04:05:00,70.4,59.1,29.86,North,359,0.0,0.0,68,0.00,,---,0.00,VWS V14.01,2013-07-12 08:05:00,
2013-07-12 04:10:00,70.5,59.1,29.86,North,359,0.0,31.8,67,0.00,,---,0.00,VWS V14.01,2013-07-12 08:10:00,
2013-07-12 04:15:00,71.1,59.8,29.86,North,359,0.0,31.8,67,0.00,,---,0.00,VWS V14.01,2013-07-12 08:15:00,
2013-07-12 04:20:00,70.1,58.8,29.86,North,359,0.0,31.8,67,0.00,,---,0.00,VWS V14.01,2013-07-12 08:20:00,
2013-07-12 04:25:00,71.5,59.8,29.86,North,359,0.0,31.8,66,0.00,,---,0.00,VWS V14.01,2013-07-12 08:25:00,
2013-07-12 04:30:00,71.1,59.4,29.86,North,359,0.0,31.8,67,0.00,,---,0.00,VWS V14.01,2013-07-12 08:30:00,
2013-07-12 04:35:00,70.6,58.9,29.86,North,359,0.0,31.8,66,0.00,,---,0.00,VWS V14.01,2013-07-12 08:35:00,
2013-07-12 04:40:00,71.5,59.8,29.87,North,359,0.0,31.8,67,0.00,,---,0.00,VWS V14.01,2013-07-12 08:40:00,
2013-07-12 04:45:00,72.2,60.3,29.87,North,359,0.0,31.8,66,0.00,,---,0.00,VWS V14.01,2013-07-12 08:45:00,
2013-07-12 04:50:00,70.7,59.1,29.86,North,359,0.0,31.8,67,0.00,,---,0.00,VWS V14.01,2013-07-12 08:50:00,
2013-07-12 04:55:00,70.7,59.2,29.87,North,359,0.0,31.8,67,0.00,,---,0.00,VWS V14.01,2013-07-12 08:55:00,
2013-07-12 05:00:00,71.8,60.3,29.87,North,359,0.0,31.8,67,0.00,,---,0.00,VWS V14.01,2013-07-12 09:00:00,
2013-07-12 05:05:00,70.7,59.2,29.87,North,359,0.0,31.8,67,0.00,,---,0.00,VWS V14.01,2013-07-12 09:05:00,
2013-07-12 05:10:00,70.8,59.3,29.87,North,359,0.0,31.8,67,0.00,,---,0.00,VWS V14.01,2013-07-12 09:10:00,
2013-07-12 05:15:00,70.6,59.5,29.86,North,359,0.0,31.8,68,0.00,,---,0.00,VWS V14.01,2013-07-12 09:15:00,
2013-07-12 05:20:00,70.7,59.6,29.86,North,359,0.0,31.8,68,0.00,,---,0.00,VWS V14.01,2013-07-12 09:20:00,
2013-07-12 05:25:00,70.6,59.6,29.87,North,359,0.0,31.8,68,73.38,,---,0.00,VWS V14.01,2013-07-12 09:25:00,
2013-07-12 05:30:00,71.0,60.1,29.87,North,359,0.0,31.8,68,0.00,,---,0.00,VWS V14.01,2013-07-12 09:30:00,
2013-07-12 05:35:00,70.4,59.6,29.87,North,359,0.0,31.8,69,0.00,,---,0.00,VWS V14.01,2013-07-12 09:35:00,
2013-07-12 05:40:00,70.5,59.8,29.87,North,359,0.0,31.8,69,0.00,,---,0.00,VWS V14.01,2013-07-12 09:40:00,
2013-07-12 05:45:00,70.8,60.2,29.88,North,359,0.0,31.8,69,0.00,,---,0.00,VWS V14.01,2013-07-12 09:45:00,
2013-07-12 05:50:00,70.1,59.7,29.88,North,359,0.0,31.8,70,0.00,,---,0.00,VWS V14.01,2013-07-12 09:50:00,
2013-07-12 05:55:00,70.5,60.3,29.88,North,359,0.0,31.8,70,0.00,,---,0.00,VWS V14.01,2013-07-12 09:55:00,
2013-07-12 06:00:00,70.2,60.1,29.88,North,359,0.0,31.8,70,0.00,,---,0.00,VWS V14.01,2013-07-12 10:00:00,
2013-07-12 06:05:00,70.6,60.5,29.88,North,359,0.0,31.8,70,0.00,,---,0.00,VWS V14.01,2013-07-12 10:05:00,
2013-07-12 06:10:00,70.4,60.3,29.88,North,359,0.0,31.8,70,0.00,,---,0.00,VWS V14.01,2013-07-12 10:10:00,
2013-07-12 06:15:00,70.6,60.6,29.89,North,359,0.0,31.8,71,0.00,,---,0.00,VWS V14.01,2013-07-12 10:15:00,
2013-07-12 06:20:00,70.5,60.6,29.89,North,359,0.0,31.8,71,0.00,,---,0.00,VWS V14.01,2013-07-12 10:20:00,
2013-07-12 06:25:00,71.2,61.4,29.89,North,359,0.0,31.8,71,0.00,,---,0.00,VWS V14.01,2013-07-12 10:25:00,
2013-07-12 06:30:00,71.1,61.2,29.89,North,359,0.0,31.8,71,0.00,,---,0.00,VWS V14.01,2013-07-12 10:30:00,
2013-07-12 06:35:00,70.8,61.0,29.89,North,359,0.0,31.8,71,0.00,,---,0.00,VWS V14.01,2013-07-12 10:35:00,
2013-07-12 06:40:00,71.2,61.5,29.89,North,359,0.0,31.8,71,0.00,,---,0.00,VWS V14.01,2013-07-12 10:40:00,
2013-07-12 06:45:00,70.7,61.1,29.90,North,359,0.0,31.8,72,0.00,,---,0.00,VWS V14.01,2013-07-12 10:45:00,
2013-07-12 06:50:00,70.0,60.6,29.89,North,359,0.0,31.8,72,0.00,,---,0.00,VWS V14.01,2013-07-12 10:50:00,
2013-07-12 06:55:00,70.2,60.8,29.90,North,359,0.0,31.8,72,0.00,,---,0.00,VWS V14.01,2013-07-12 10:55:00,
2013-07-12 07:00:00,70.0,60.8,29.90,North,359,0.0,31.8,73,0.00,,---,0.00,VWS V14.01,2013-07-12 11:00:00,
2013-07-12 07:05:00,70.0,60.7,29.90,North,359,0.0,31.8,72,0.00,,---,0.00,VWS V14.01,2013-07-12 11:05:00,
2013-07-12 07:10:00,69.8,60.6,29.90,North,359,0.0,31.8,73,0.00,,---,0.00,VWS V14.01,2013-07-12 11:10:00,
2013-07-12 07:15:00,70.2,61.2,29.90,North,359,0.0,31.8,73,0.00,,---,0.00,VWS V14.01,2013-07-12 11:15:00,
2013-07-12 07:20:00,69.8,60.8,29.90,North,359,0.0,31.8,73,0.00,,---,0.00,VWS V14.01,2013-07-12 11:20:00,
2013-07-12 07:25:00,69.8,60.8,29.90,North,359,0.0,31.8,73,0.00,,---,0.00,VWS V14.01,2013-07-12 11:25:00,
2013-07-12 07:30:00,70.5,61.7,29.89,North,359,0.0,31.8,74,0.00,,---,0.00,VWS V14.01,2013-07-12 11:30:00,
2013-07-12 07:35:00,70.2,61.4,29.89,North,359,0.0,31.8,74,0.00,,---,0.00,VWS V14.01,2013-07-12 11:35:00,
2013-07-12 07:40:00,70.1,61.4,29.89,North,359,0.0,31.8,74,0.00,,---,0.00,VWS V14.01,2013-07-12 11:40:00,
2013-07-12 07:45:00,70.5,61.8,29.89,North,359,0.0,31.8,74,0.00,,---,0.00,VWS V14.01,2013-07-12 11:45:00,
2013-07-12 07:49:00,71.1,62.4,29.90,North,359,0.0,31.8,74,0.00,,---,0.00,VWS V14.01,2013-07-12 11:49:00,
2013-07-12 07:54:00,70.5,61.8,29.90,North,359,0.0,31.8,74,0.00,,---,0.00,VWS V14.01,2013-07-12 11:54:00,
2013-07-12 07:59:00,70.5,61.8,29.90,North,359,0.0,31.8,74,0.00,,---,0.00,VWS V14.01,2013-07-12 11:59:00,
2013-07-12 08:04:00,70.5,61.5,29.90,North,359,0.0,31.8,73,0.00,,---,0.00,VWS V14.01,2013-07-12 12:04:00,
2013-07-12 08:09:00,71.0,62.0,29.90,North,359,0.0,31.8,73,0.00,,---,0.00,VWS V14.01,2013-07-12 12:09:00,
2013-07-12 08:14:00,70.7,61.5,29.91,North,359,0.0,31.8,73,0.00,,---,0.00,VWS V14.01,2013-07-12 12:14:00,
2013-07-12 08:19:00,70.8,61.8,29.91,North,359,0.0,31.8,73,0.00,,---,0.00,VWS V14.01,2013-07-12 12:19:00,
2013-07-12 08:24:00,70.9,61.7,29.92,North,359,0.0,31.8,73,0.00,,---,0.00,VWS V14.01,2013-07-12 12:24:00,
2013-07-12 08:29:00,70.5,61.4,29.92,North,359,0.0,31.8,73,0.00,,---,0.00,VWS V14.01,2013-07-12 12:29:00,
2013-07-12 08:34:00,70.8,61.7,29.92,North,359,0.0,31.8,73,0.00,,---,0.00,VWS V14.01,2013-07-12 12:34:00,
2013-07-12 08:39:00,71.4,62.5,29.92,North,359,0.0,31.8,74,0.00,,---,0.00,VWS V14.01,2013-07-12 12:39:00,
2013-07-12 08:44:00,71.7,62.6,29.92,North,359,0.0,31.8,73,0.00,,---,0.00,VWS V14.01,2013-07-12 12:44:00,
2013-07-12 08:49:00,70.7,61.6,29.92,North,359,0.0,31.8,73,0.00,,---,0.00,VWS V14.01,2013-07-12 12:49:00,
2013-07-12 08:54:00,71.0,61.7,29.92,North,359,0.0,31.8,72,0.00,,---,0.00,VWS V14.01,2013-07-12 12:54:00,
2013-07-12 08:59:00,71.4,62.0,29.92,North,359,0.0,31.8,72,0.00,,---,0.00,VWS V14.01,2013-07-12 12:59:00,
2013-07-12 09:04:00,71.1,61.4,29.92,North,359,0.0,31.8,72,0.00,,---,0.00,VWS V14.01,2013-07-12 13:04:00,
2013-07-12 09:09:00,71.5,62.0,29.92,North,359,0.0,31.8,72,0.00,,---,0.00,VWS V14.01,2013-07-12 13:09:00,
2013-07-12 09:14:00,71.9,62.3,29.92,North,359,0.0,31.8,72,0.00,,---,0.00,VWS V14.01,2013-07-12 13:14:00,
2013-07-12 09:19:00,72.3,62.5,29.92,North,359,0.0,31.8,71,0.00,,---,0.00,VWS V14.01,2013-07-12 13:19:00,
2013-07-12 09:24:00,72.6,62.9,29.92,North,359,0.0,31.8,72,0.00,,---,0.00,VWS V14.01,2013-07-12 13:24:00,
2013-07-12 09:29:00,72.0,62.1,29.92,North,359,0.0,31.8,71,0.00,,---,0.00,VWS V14.01,2013-07-12 13:29:00,
2013-07-12 09:34:00,72.6,63.0,29.92,North,359,0.0,31.8,72,0.00,,---,0.00,VWS V14.01,2013-07-12 13:34:00,
2013-07-12 09:39:00,72.9,63.3,29.92,North,359,0.0,31.8,72,0.00,,---,0.00,VWS V14.01,2013-07-12 13:39:00,
2013-07-12 09:44:00,73.0,63.7,29.93,North,359,0.0,31.8,73,0.00,,---,0.00,VWS V14.01,2013-07-12 13:44:00,
2013-07-12 09:49:00,71.3,62.2,29.93,North,359,0.0,31.8,73,0.00,,---,0.00,VWS V14.01,2013-07-12 13:49:00,
2013-07-12 09:54:00,71.3,62.6,29.93,North,359,0.0,31.8,74,0.00,,---,0.00,VWS V14.01,2013-07-12 13:54:00,
2013-07-12 09:59:00,71.7,63.2,29.93,North,359,0.0,31.8,75,0.00,,---,0.00,VWS V14.01,2013-07-12 13:59:00,
2013-07-12 10:04:00,70.9,62.6,29.94,North,359,0.0,31.8,75,0.00,,---,0.00,VWS V14.01,2013-07-12 14:04:00,
2013-07-12 10:09:00,72.2,63.7,29.94,North,359,0.0,31.8,75,0.00,,---,0.00,VWS V14.01,2013-07-12 14:09:00,
2013-07-12 10:14:00,70.9,63.0,29.93,North,359,0.0,31.8,76,0.00,,---,0.00,VWS V14.01,2013-07-12 14:14:00,
2013-07-12 10:19:00,71.0,62.7,29.93,North,359,0.0,31.8,75,0.00,,---,0.00,VWS V14.01,2013-07-12 14:19:00,
2013-07-12 10:24:00,71.2,62.9,29.93,North,359,0.0,31.8,75,0.00,,---,0.00,VWS V14.01,2013-07-12 14:24:00,
2013-07-12 10:29:00,71.5,63.6,29.93,North,359,0.0,31.8,76,0.00,,---,0.00,VWS V14.01,2013-07-12 14:29:00,
2013-07-12 10:34:00,71.8,63.6,29.93,North,359,0.0,31.8,75,0.00,,---,0.00,VWS V14.01,2013-07-12 14:34:00,
2013-07-12 10:39:00,71.7,63.7,29.94,North,359,0.0,31.8,76,0.00,,---,0.00,VWS V14.01,2013-07-12 14:39:00,
2013-07-12 10:44:00,71.2,63.5,29.93,North,359,0.0,31.8,77,0.00,,---,0.00,VWS V14.01,2013-07-12 14:44:00,
2013-07-12 10:49:00,72.1,64.6,29.94,North,359,0.0,31.8,77,0.00,,---,0.00,VWS V14.01,2013-07-12 14:49:00,
2013-07-12 10:54:00,72.1,64.6,29.93,North,359,0.0,31.8,77,0.00,,---,0.00,VWS V14.01,2013-07-12 14:54:00,
2013-07-12 10:59:00,71.1,63.8,29.94,North,359,0.0,31.8,78,0.00,,---,0.00,VWS V14.01,2013-07-12 14:59:00,
2013-07-12 11:04:00,71.2,63.8,29.94,North,359,0.0,31.8,78,0.00,,---,0.00,VWS V14.01,2013-07-12 15:04:00,
2013-07-12 11:09:00,72.3,65.0,29.94,North,359,0.0,31.8,78,0.00,,---,0.00,VWS V14.01,2013-07-12 15:09:00,
2013-07-12 11:14:00,71.4,63.9,29.94,North,359,0.0,31.8,77,0.00,,---,0.00,VWS V14.01,2013-07-12 15:14:00,
2013-07-12 11:19:00,71.4,64.2,29.94,North,359,0.0,31.8,78,0.00,,---,0.00,VWS V14.01,2013-07-12 15:19:00,
2013-07-12 11:24:00,72.3,64.9,29.94,North,359,0.0,31.8,78,0.00,,---,0.00,VWS V14.01,2013-07-12 15:24:00,
2013-07-12 11:29:00,72.1,64.8,29.94,North,359,0.0,31.8,78,0.00,,---,0.00,VWS V14.01,2013-07-12 15:29:00,
2013-07-12 11:34:00,71.3,63.8,29.94,North,359,0.0,31.8,77,0.00,,---,0.00,VWS V14.01,2013-07-12 15:34:00,
2013-07-12 11:39:00,71.8,64.0,29.94,East,96,0.0,31.8,76,0.00,,---,0.00,VWS V14.01,2013-07-12 15:39:00,
2013-07-12 11:44:00,71.9,64.3,29.94,ENE,66,6.3,31.8,77,0.00,,---,0.00,VWS V14.01,2013-07-12 15:44:00,
2013-07-12 11:49:00,72.6,65.0,29.94,East,86,0.0,31.8,77,0.00,,---,0.00,VWS V14.01,2013-07-12 15:49:00,
2013-07-12 11:54:00,72.5,64.9,29.94,East,86,0.0,31.8,77,0.00,,---,0.00,VWS V14.01,2013-07-12 15:54:00,
2013-07-12 11:59:00,73.2,65.1,29.94,East,86,0.0,31.8,76,0.00,,---,0.00,VWS V14.01,2013-07-12 15:59:00,
2013-07-12 12:04:00,73.2,65.1,29.94,East,86,0.0,31.8,76,0.00,,---,0.00,VWS V14.01,2013-07-12 16:04:00,
2013-07-12 12:09:00,71.5,63.7,29.95,North,359,0.0,31.8,76,0.00,,---,0.00,VWS V14.01,2013-07-12 16:09:00,
2013-07-12 12:14:00,71.4,63.8,29.95,North,359,0.0,31.8,77,0.00,,---,0.00,VWS V14.01,2013-07-12 16:14:00,
2013-07-12 12:19:00,71.1,63.6,29.95,North,359,0.0,31.8,77,0.00,,---,0.00,VWS V14.01,2013-07-12 16:19:00,
2013-07-12 12:24:00,72.0,64.8,29.95,North,359,0.0,31.8,78,0.00,,---,0.00,VWS V14.01,2013-07-12 16:24:00,
2013-07-12 12:29:00,72.0,64.9,29.95,North,359,0.0,31.8,78,0.00,,---,0.00,VWS V14.01,2013-07-12 16:29:00,
2013-07-12 12:34:00,71.4,64.0,29.95,North,359,0.0,31.8,78,0.00,,---,0.00,VWS V14.01,2013-07-12 16:34:00,
2013-07-12 12:39:00,71.9,64.9,29.95,North,359,0.0,31.8,79,0.00,,---,0.00,VWS V14.01,2013-07-12 16:39:00,
2013-07-12 12:44:00,72.0,65.3,29.95,North,359,0.0,31.8,79,0.00,,---,0.00,VWS V14.01,2013-07-12 16:44:00,
2013-07-12 12:49:00,72.2,65.8,29.95,North,359,0.0,31.8,80,0.00,,---,0.00,VWS V14.01,2013-07-12 16:49:00,
2013-07-12 12:54:00,71.0,65.2,29.95,North,359,0.0,31.8,82,0.00,,---,0.00,VWS V14.01,2013-07-12 16:54:00,
2013-07-12 12:59:00,72.0,66.2,29.95,North,359,0.0,31.8,82,0.00,,---,0.00,VWS V14.01,2013-07-12 16:59:00,
2013-07-12 13:04:00,71.0,65.7,29.95,North,359,0.0,31.8,83,0.00,,---,0.00,VWS V14.01,2013-07-12 17:04:00,
2013-07-12 13:09:00,70.9,66.1,29.95,North,359,0.0,31.8,85,0.00,,---,0.00,VWS V14.01,2013-07-12 17:09:00,
2013-07-12 13:14:00,72.0,68.0,29.95,North,359,0.0,31.8,87,0.00,,---,0.00,VWS V14.01,2013-07-12 17:14:00,
2013-07-12 13:19:00,71.5,67.7,29.95,NNE,15,0.0,31.8,88,0.00,,---,0.00,VWS V14.01,2013-07-12 17:19:00,
2013-07-12 13:24:00,70.6,67.3,29.95,SW,218,5.3,31.8,89,0.00,,---,0.00,VWS V14.01,2013-07-12 17:24:00,
2013-07-12 13:29:00,71.1,68.6,29.95,North,359,0.0,31.8,92,0.00,,---,0.00,VWS V14.01,2013-07-12 17:29:00,
2013-07-12 13:34:00,70.4,68.4,29.95,North,359,0.0,31.8,93,0.00,,---,0.00,VWS V14.01,2013-07-12 17:34:00,
2013-07-12 13:39:00,70.2,68.6,29.95,North,359,0.0,31.8,95,0.00,,---,0.00,VWS V14.01,2013-07-12 17:39:00,
2013-07-12 13:44:00,71.0,69.7,29.94,North,359,0.0,31.8,96,0.00,,---,0.00,VWS V14.01,2013-07-12 17:44:00,
2013-07-12 13:50:00,70.7,69.6,29.95,North,359,0.0,31.8,96,0.00,,---,0.00,VWS V14.01,2013-07-12 17:50:00,
2013-07-12 13:55:00,70.2,69.2,29.94,North,359,0.0,31.8,97,0.00,,---,0.00,VWS V14.01,2013-07-12 17:55:00,
2013-07-12 14:00:00,69.6,68.8,29.94,North,359,0.0,31.8,97,0.00,,---,0.00,VWS V14.01,2013-07-12 18:00:00,
2013-07-12 14:05:00,69.8,69.1,29.94,North,359,0.0,31.8,98,0.00,,---,0.00,VWS V14.01,2013-07-12 18:05:00,
2013-07-12 14:10:00,69.4,68.8,29.94,North,359,0.0,31.8,98,0.00,,---,0.00,VWS V14.01,2013-07-12 18:10:00,
2013-07-12 14:15:00,70.3,69.7,29.94,SE,131,6.1,31.8,98,0.00,,---,0.00,VWS V14.01,2013-07-12 18:15:00,
2013-07-12 14:20:00,69.7,69.2,29.94,ESE,105,4.0,31.8,98,0.00,,---,0.00,VWS V14.01,2013-07-12 18:20:00,
2013-07-12 14:25:00,69.4,69.1,29.94,South,170,8.8,31.8,99,0.00,,---,0.00,VWS V14.01,2013-07-12 18:25:00,
2013-07-12 14:30:00,69.2,68.9,29.93,North,359,3.5,31.8,99,0.00,,---,0.00,VWS V14.01,2013-07-12 18:30:00,
2013-07-12 14:35:00,69.5,69.3,29.93,East,83,8.3,31.8,99,0.00,,---,0.00,VWS V14.01,2013-07-12 18:35:00,
2013-07-12 14:40:00,69.7,69.6,29.94,East,83,0.0,31.8,100,0.00,,---,0.00,VWS V14.01,2013-07-12 18:40:00,
2013-07-12 14:45:00,69.4,69.3,29.94,East,83,0.0,31.8,100,0.00,,---,0.00,VWS V14.01,2013-07-12 18:45:00,
2013-07-12 14:50:00,70.0,69.9,29.94,East,83,0.0,31.8,100,0.00,,---,0.00,VWS V14.01,2013-07-12 18:50:00,
2013-07-12 14:55:00,70.0,70.0,29.94,East,83,0.0,31.8,100,0.00,,---,0.00,VWS V14.01,2013-07-12 18:55:00,
2013-07-12 15:00:00,69.4,69.4,29.94,North,359,0.0,31.8,100,0.00,,---,0.00,VWS V14.01,2013-07-12 19:00:00,
2013-07-12 15:05:00,69.5,69.5,29.94,North,359,0.0,31.8,100,0.00,,---,0.00,VWS V14.01,2013-07-12 19:05:00,
2013-07-12 15:10:00,69.5,69.5,29.94,North,359,0.0,31.8,100,0.00,,---,0.00,VWS V14.01,2013-07-12 19:10:00,
2013-07-12 15:15:00,69.2,69.2,29.94,North,359,0.0,31.8,100,0.00,,---,0.00,VWS V14.01,2013-07-12 19:15:00,
2013-07-12 15:20:00,69.7,69.7,29.94,North,359,0.0,31.8,100,0.01,,---,0.01,VWS V14.01,2013-07-12 19:20:00,
2013-07-12 15:25:00,69.4,69.4,29.94,North,359,0.0,31.8,100,0.01,,---,0.01,VWS V14.01,2013-07-12 19:25:00,
2013-07-12 15:30:00,69.2,69.2,29.94,WSW,239,0.0,31.8,100,0.01,,---,0.01,VWS V14.01,2013-07-12 19:30:00,
2013-07-12 15:35:00,69.7,69.7,29.94,East,86,0.0,31.8,100,0.01,,---,0.01,VWS V14.01,2013-07-12 19:35:00,
2013-07-12 15:40:00,69.4,69.4,29.94,East,86,0.0,31.8,100,0.00,,---,0.01,VWS V14.01,2013-07-12 19:40:00,
2013-07-12 15:46:00,69.2,69.2,29.94,East,86,0.0,31.8,100,0.01,,---,0.01,VWS V14.01,2013-07-12 19:46:00,
2013-07-12 15:51:00,68.6,68.6,29.94,East,86,0.0,31.8,100,0.02,,---,0.02,VWS V14.01,2013-07-12 19:51:00,
2013-07-12 15:56:00,69.6,69.6,29.94,East,86,0.0,31.8,100,0.00,,---,0.02,VWS V14.01,2013-07-12 19:56:00,
2013-07-12 16:01:00,69.0,69.0,29.94,East,93,0.0,31.8,100,0.03,,---,0.03,VWS V14.01,2013-07-12 20:01:00,
2013-07-12 16:06:00,68.1,68.1,29.94,East,93,0.0,31.8,100,0.00,,---,0.03,VWS V14.01,2013-07-12 20:06:00,
2013-07-12 16:11:00,68.7,68.7,29.94,East,93,0.0,31.8,100,0.03,,---,0.03,VWS V14.01,2013-07-12 20:11:00,
2013-07-12 16:16:00,68.4,68.4,29.94,East,93,0.0,31.8,100,0.04,,---,0.04,VWS V14.01,2013-07-12 20:16:00,
2013-07-12 16:22:00,67.2,67.2,29.94,East,93,0.0,31.8,100,0.04,,---,0.04,VWS V14.01,2013-07-12 20:22:00,
2013-07-12 16:27:00,68.3,68.3,29.94,East,93,0.0,31.8,100,0.05,,---,0.05,VWS V14.01,2013-07-12 20:27:00,
2013-07-12 16:32:00,68.4,68.4,29.94,East,93,0.0,31.8,100,0.05,,---,0.05,VWS V14.01,2013-07-12 20:32:00,
2013-07-12 16:37:00,68.5,68.5,29.95,East,93,0.0,31.8,100,0.06,,---,0.06,VWS V14.01,2013-07-12 20:37:00,
2013-07-12 16:42:00,67.8,67.8,29.94,East,93,0.0,31.8,100,0.07,,---,0.07,VWS V14.01,2013-07-12 20:42:00,
2013-07-12 16:47:00,67.8,67.8,29.95,East,93,0.0,31.8,100,0.07,,---,0.07,VWS V14.01,2013-07-12 20:47:00,
2013-07-12 16:53:00,67.8,67.8,29.95,East,93,0.0,31.8,100,0.00,,---,0.08,VWS V14.01,2013-07-12 20:53:00,
2013-07-12 16:58:00,67.5,67.5,29.95,East,93,0.0,31.8,100,0.00,,---,0.08,VWS V14.01,2013-07-12 20:58:00,
2013-07-12 17:03:00,68.3,68.3,29.94,ESE,122,2.9,31.8,100,0.09,,---,0.09,VWS V14.01,2013-07-12 21:03:00,
2013-07-12 17:08:00,68.4,68.4,29.95,East,96,0.0,31.8,100,0.09,,---,0.09,VWS V14.01,2013-07-12 21:08:00,
2013-07-12 17:13:00,67.7,67.7,29.95,ENE,69,0.0,31.8,100,0.10,,---,0.10,VWS V14.01,2013-07-12 21:13:00,
2013-07-12 17:18:00,67.5,67.5,29.95,ENE,72,10.6,31.8,100,0.10,,---,0.10,VWS V14.01,2013-07-12 21:18:00,
2013-07-12 17:23:00,68.4,68.4,29.95,ENE,72,0.0,31.8,100,0.11,,---,0.11,VWS V14.01,2013-07-12 21:23:00,
2013-07-12 17:28:00,67.9,67.9,29.95,WSW,240,2.7,31.8,100,0.11,,---,0.11,VWS V14.01,2013-07-12 21:28:00,
2013-07-12 17:33:00,68.2,68.2,29.95,East,90,0.0,31.8,100,0.12,,---,0.12,VWS V14.01,2013-07-12 21:33:00,
2013-07-12 17:39:00,68.4,68.4,29.95,East,90,0.0,31.8,100,0.12,,---,0.12,VWS V14.01,2013-07-12 21:39:00,
2013-07-12 17:44:00,68.1,68.1,29.95,East,90,0.0,31.8,100,0.13,,---,0.13,VWS V14.01,2013-07-12 21:44:00,
2013-07-12 17:49:00,67.8,67.8,29.95,East,90,0.0,31.8,100,0.13,,---,0.13,VWS V14.01,2013-07-12 21:49:00,
2013-07-12 17:54:00,67.9,67.9,29.95,North,359,0.0,31.8,100,0.14,,---,0.14,VWS V14.01,2013-07-12 21:54:00,
2013-07-12 17:59:00,67.4,67.4,29.95,North,359,0.0,31.8,100,0.00,,---,0.14,VWS V14.01,2013-07-12 21:59:00,
2013-07-12 18:04:00,67.1,67.1,29.95,North,359,0.0,31.8,100,0.15,,---,0.15,VWS V14.01,2013-07-12 22:04:00,
2013-07-12 18:09:00,68.3,68.3,29.95,North,359,0.0,31.8,100,0.00,,---,0.15,VWS V14.01,2013-07-12 22:09:00,
2013-07-12 18:14:00,67.0,67.0,29.95,North,359,0.0,31.8,100,0.15,,---,0.15,VWS V14.01,2013-07-12 22:14:00,
2013-07-12 18:19:00,67.8,67.8,29.96,North,359,0.0,31.8,100,0.16,,---,0.16,VWS V14.01,2013-07-12 22:19:00,
2013-07-12 18:24:00,67.1,67.1,29.96,North,359,0.0,31.8,100,0.16,,---,0.16,VWS V14.01,2013-07-12 22:24:00,
2013-07-12 18:29:00,67.4,67.4,29.96,North,359,0.0,31.8,100,0.17,,---,0.17,VWS V14.01,2013-07-12 22:29:00,
2013-07-12 18:35:00,68.2,68.2,29.96,North,359,0.0,31.8,100,0.17,,---,0.17,VWS V14.01,2013-07-12 22:35:00,
2013-07-12 18:40:00,68.1,68.1,29.96,North,359,0.0,31.8,100,0.17,,---,0.17,VWS V14.01,2013-07-12 22:40:00,
2013-07-12 18:45:00,67.0,67.0,29.96,North,359,0.0,31.8,100,0.18,,---,0.18,VWS V14.01,2013-07-12 22:45:00,
2013-07-12 18:50:00,67.2,67.2,29.95,North,359,0.0,31.8,100,0.18,,---,0.18,VWS V14.01,2013-07-12 22:50:00,
2013-07-12 18:55:00,67.2,67.2,29.95,North,359,0.0,31.8,100,0.19,,---,0.19,VWS V14.01,2013-07-12 22:55:00,
2013-07-12 19:00:00,67.9,67.9,29.95,North,359,0.0,31.8,100,0.19,,---,0.19,VWS V14.01,2013-07-12 23:00:00,
2013-07-12 19:05:00,67.5,67.5,29.96,North,359,0.9,31.8,100,0.19,,---,0.19,VWS V14.01,2013-07-12 23:05:00,
2013-07-12 19:10:00,67.1,67.1,29.96,North,4,1.2,31.8,100,0.20,,---,0.20,VWS V14.01,2013-07-12 23:10:00,
2013-07-12 19:15:00,67.1,67.1,29.96,SSE,152,0.0,31.8,100,0.20,,---,0.20,VWS V14.01,2013-07-12 23:15:00,
2013-07-12 19:20:00,67.5,67.5,29.96,SSE,152,0.0,31.8,100,0.20,,---,0.20,VWS V14.01,2013-07-12 23:20:00,
2013-07-12 19:25:00,66.9,66.9,29.96,SSE,152,0.0,31.8,100,0.21,,---,0.21,VWS V14.01,2013-07-12 23:25:00,
2013-07-12 19:30:00,67.8,67.8,29.96,SSE,152,0.0,31.8,100,0.21,,---,0.21,VWS V14.01,2013-07-12 23:30:00,
2013-07-12 19:35:00,66.8,66.8,29.96,SSE,152,0.0,31.8,100,0.21,,---,0.21,VWS V14.01,2013-07-12 23:35:00,
2013-07-12 19:40:00,66.2,66.2,29.96,SSE,152,0.0,31.8,100,0.21,,---,0.21,VWS V14.01,2013-07-12 23:40:00,
2013-07-12 19:46:00,67.5,67.5,29.96,North,359,0.0,31.8,100,0.00,,---,0.22,VWS V14.01,2013-07-12 23:46:00,
2013-07-12 19:51:00,67.6,67.6,29.96,North,359,0.0,31.8,100,0.22,,---,0.22,VWS V14.01,2013-07-12 23:51:00,
2013-07-12 19:56:00,66.3,66.3,29.96,North,359,1.3,31.8,100,0.22,,---,0.22,VWS V14.01,2013-07-12 23:56:00,
2013-07-12 20:01:00,66.2,66.2,29.96,NE,44,5.2,31.8,100,0.22,,---,0.22,VWS V14.01,2013-07-13 00:01:00,
2013-07-12 20:06:00,67.6,67.6,29.96,NE,37,11.4,31.8,100,0.00,,---,0.23,VWS V14.01,2013-07-13 00:06:00,
2013-07-12 20:11:00,67.3,67.3,29.96,North,0,2.4,31.8,100,0.23,,---,0.23,VWS V14.01,2013-07-13 00:11:00,
2013-07-12 20:16:00,66.7,66.7,29.96,ESE,107,8.3,31.8,100,0.23,,---,0.23,VWS V14.01,2013-07-13 00:16:00,
2013-07-12 20:21:00,67.1,67.1,29.97,NNE,14,9.8,31.8,100,0.23,,---,0.23,VWS V14.01,2013-07-13 00:21:00,
2013-07-12 20:26:00,67.3,67.3,29.96,North,359,13.3,31.8,100,0.23,,---,0.23,VWS V14.01,2013-07-13 00:26:00,
2013-07-12 20:31:00,67.1,67.1,29.96,North,359,1.7,31.8,100,0.24,,---,0.24,VWS V14.01,2013-07-13 00:31:00,
2013-07-12 20:36:00,66.4,66.3,29.97,NE,42,8.8,31.8,100,0.24,,---,0.24,VWS V14.01,2013-07-13 00:36:00,
2013-07-12 20:42:00,66.7,66.5,29.97,North,359,0.0,31.8,99,0.24,,---,0.24,VWS V14.01,2013-07-13 00:42:00,
2013-07-12 20:47:00,66.4,66.1,29.97,North,359,0.0,31.8,99,0.24,,---,0.24,VWS V14.01,2013-07-13 00:47:00,
2013-07-12 20:52:00,66.7,66.3,29.97,North,359,0.0,31.8,99,0.24,,---,0.24,VWS V14.01,2013-07-13 00:52:00,
2013-07-12 20:57:00,66.9,66.6,29.97,North,359,0.7,31.8,99,0.25,,---,0.25,VWS V14.01,2013-07-13 00:57:00,
2013-07-12 21:02:00,67.0,66.8,29.97,NE,34,0.0,31.8,99,0.25,,---,0.25,VWS V14.01,2013-07-13 01:02:00,
2013-07-12 21:07:00,67.6,67.5,29.97,North,359,0.0,31.8,100,0.25,,---,0.25,VWS V14.01,2013-07-13 01:07:00,
2013-07-12 21:12:00,66.1,66.1,29.97,North,359,0.0,31.8,100,0.25,,---,0.25,VWS V14.01,2013-07-13 01:12:00,
2013-07-12 21:17:00,66.9,66.9,29.98,NE,45,8.7,31.8,100,0.25,,---,0.25,VWS V14.01,2013-07-13 01:17:00,
2013-07-12 21:22:00,67.0,67.0,29.98,ENE,59,0.0,0.0,100,0.26,,---,0.26,VWS V14.01,2013-07-13 01:22:00,
2013-07-12 21:27:00,67.4,67.4,29.98,NE,48,6.5,11.6,100,0.26,,---,0.26,VWS V14.01,2013-07-13 01:27:00,
2013-07-12 21:32:00,66.0,66.0,29.97,ESE,110,8.3,9.9,100,0.26,,---,0.26,VWS V14.01,2013-07-13 01:32:00,
2013-07-12 21:37:00,67.0,67.0,29.98,North,359,0.0,8.7,100,0.26,,---,0.26,VWS V14.01,2013-07-13 01:37:00,
2013-07-12 21:42:00,67.1,67.1,29.98,East,83,5.7,12.9,100,0.00,,---,0.26,VWS V14.01,2013-07-13 01:42:00,
2013-07-12 21:47:00,66.1,66.1,29.98,ENE,72,20.5,20.5,100,0.27,,---,0.27,VWS V14.01,2013-07-13 01:47:00,
2013-07-12 21:53:00,66.8,66.8,29.98,ENE,77,3.7,14.9,100,0.00,,---,0.27,VWS V14.01,2013-07-13 01:53:00,
2013-07-12 21:58:00,66.6,66.6,29.98,East,96,0.0,4.5,100,0.27,,---,0.27,VWS V14.01,2013-07-13 01:58:00,
2013-07-12 22:03:00,66.0,66.0,29.98,North,359,0.0,0.0,100,0.27,,---,0.27,VWS V14.01,2013-07-13 02:03:00,
2013-07-12 22:08:00,66.3,66.3,29.98,SE,128,0.0,0.0,100,0.27,,---,0.27,VWS V14.01,2013-07-13 02:08:00,
2013-07-12 22:13:00,67.0,67.0,29.98,NE,35,9.1,10.4,100,0.27,,---,0.27,VWS V14.01,2013-07-13 02:13:00,
2013-07-12 22:18:00,66.1,66.1,29.97,West,270,5.2,7.8,100,0.27,,---,0.27,VWS V14.01,2013-07-13 02:18:00,
2013-07-12 22:23:00,66.6,66.6,29.97,North,359,3.7,9.9,100,0.02,,---,0.28,VWS V14.01,2013-07-13 02:23:00,
2013-07-12 22:28:00,66.3,66.3,29.98,North,359,1.1,6.4,100,0.02,,---,0.28,VWS V14.01,2013-07-13 02:28:00,
2013-07-12 22:33:00,66.2,66.2,29.98,NE,46,11.5,12.5,100,0.02,,---,0.28,VWS V14.01,2013-07-13 02:33:00,
2013-07-12 22:38:00,65.6,65.6,29.98,North,10,5.4,9.8,100,0.02,,---,0.28,VWS V14.01,2013-07-13 02:38:00,
2013-07-12 22:43:00,67.5,67.5,29.98,NE,51,8.9,9.8,100,0.02,,---,0.28,VWS V14.01,2013-07-13 02:43:00,
2013-07-12 22:48:00,65.7,65.7,29.99,North,352,6.0,8.5,100,0.01,,---,0.28,VWS V14.01,2013-07-13 02:48:00,
2013-07-12 22:53:00,67.0,67.0,29.99,ENE,72,2.9,8.6,100,0.00,,---,0.29,VWS V14.01,2013-07-13 02:53:00,
2013-07-12 22:58:00,67.0,67.0,29.99,North,359,0.0,0.4,100,0.02,,---,0.29,VWS V14.01,2013-07-13 02:58:00,
2013-07-12 23:04:00,67.3,67.3,29.99,North,359,0.0,0.0,100,0.02,,---,0.29,VWS V14.01,2013-07-13 03:04:00,
2013-07-12 23:09:00,67.8,67.8,29.99,North,359,0.0,4.4,100,0.02,,---,0.29,VWS V14.01,2013-07-13 03:09:00,
2013-07-12 23:14:00,66.4,66.4,29.99,NNE,31,0.0,6.5,100,0.02,,---,0.29,VWS V14.01,2013-07-13 03:14:00,
2013-07-12 23:19:00,66.9,66.9,29.99,North,359,0.0,7.9,100,0.02,,---,0.29,VWS V14.01,2013-07-13 03:19:00,
2013-07-12 23:24:00,67.6,67.6,29.99,North,359,13.0,13.0,100,0.01,,---,0.29,VWS V14.01,2013-07-13 03:24:00,
2013-07-12 23:29:00,68.3,68.3,29.99,North,359,0.0,8.5,100,0.02,,---,0.30,VWS V14.01,2013-07-13 03:29:00,
2013-07-12 23:34:00,68.4,68.4,29.99,NNE,14,2.1,11.5,100,0.02,,---,0.30,VWS V14.01,2013-07-13 03:34:00,
2013-07-12 23:39:00,68.3,68.3,29.99,NNE,17,3.9,9.2,100,0.02,,---,0.30,VWS V14.01,2013-07-13 03:39:00,
2013-07-12 23:44:00,67.9,67.9,29.99,North,359,2.4,2.4,100,0.02,,---,0.30,VWS V14.01,2013-07-13 03:44:00,
2013-07-12 23:49:00,68.4,68.4,29.99,NNE,20,0.0,0.0,100,0.02,,---,0.30,VWS V14.01,2013-07-13 03:49:00,
2013-07-12 23:54:00,68.5,68.5,29.99,North,359,0.0,0.0,100,0.01,,---,0.30,VWS V14.01,2013-07-13 03:54:00,
2013-07-12 23:59:00,67.2,67.2,29.99,North,359,0.0,1.3,100,0.01,,---,0.30,VWS V14.01,2013-07-13 03:59:00,